createdAt,value
2023-05-23T00:00:07.196Z,20.02
2023-05-23T00:02:33.964Z,19.98
2023-05-23T00:05:00.808Z,19.89
2023-05-23T00:07:27.450Z,19.89
2023-05-23T00:09:54.104Z,19.88
2023-05-23T00:12:22.492Z,19.94
2023-05-23T00:14:49.153Z,19.95
2023-05-23T00:17:15.881Z,19.90
2023-05-23T00:19:42.616Z,19.99
2023-05-23T00:22:09.572Z,19.93
2023-05-23T00:24:36.170Z,19.87
2023-05-23T00:27:02.953Z,19.85
2023-05-23T00:29:31.002Z,19.77
2023-05-23T00:31:57.646Z,19.86
2023-05-23T00:34:24.376Z,19.94
2023-05-23T00:36:51.018Z,20.05
2023-05-23T00:39:17.678Z,20.12
2023-05-23T00:41:44.369Z,20.21
2023-05-23T00:44:11.029Z,19.96
2023-05-23T00:46:39.843Z,20.03
2023-05-23T00:49:06.636Z,20.16
2023-05-23T00:51:33.744Z,20.22
2023-05-23T00:54:01.460Z,20.21
2023-05-23T00:56:29.099Z,20.16
2023-05-23T00:58:56.071Z,20.12
2023-05-23T01:01:22.832Z,20.22
2023-05-23T01:03:51.030Z,20.18
2023-05-23T01:06:17.932Z,20.04
2023-05-23T01:08:44.711Z,19.93
2023-05-23T01:11:18.082Z,19.80
2023-05-23T01:13:54.646Z,19.67
2023-05-23T01:16:36.282Z,19.68
2023-05-23T01:19:21.457Z,19.79
2023-05-23T01:21:54.378Z,19.95
2023-05-23T01:24:35.930Z,19.93
2023-05-23T01:27:09.459Z,19.95
2023-05-23T01:29:42.221Z,19.83
2023-05-23T01:32:11.939Z,19.79
2023-05-23T01:34:41.179Z,19.76
2023-05-23T01:37:12.442Z,19.96
2023-05-23T01:39:39.226Z,20.04
2023-05-23T01:42:07.058Z,20.12
2023-05-23T01:44:35.472Z,19.99
2023-05-23T01:47:05.680Z,19.96
2023-05-23T01:49:34.050Z,20.25
2023-05-23T01:52:01.979Z,20.25
2023-05-23T01:54:29.853Z,20.16
2023-05-23T01:56:57.484Z,20.29
2023-05-23T01:59:24.309Z,20.27
2023-05-23T02:01:51.134Z,20.36
2023-05-23T02:04:19.516Z,20.39
2023-05-23T02:06:46.161Z,20.34
2023-05-23T02:09:12.769Z,20.36
2023-05-23T02:11:39.496Z,20.47
2023-05-23T02:14:06.801Z,20.51
2023-05-23T02:16:33.635Z,20.51
2023-05-23T02:19:00.315Z,20.48
2023-05-23T02:21:28.427Z,20.23
2023-05-23T02:23:56.438Z,20.37
2023-05-23T02:26:23.102Z,20.29
2023-05-23T02:28:49.817Z,20.34
2023-05-23T02:31:16.679Z,20.13
2023-05-23T02:33:43.385Z,20.25
2023-05-23T02:36:10.139Z,20.18
2023-05-23T02:38:38.177Z,20.38
2023-05-23T02:41:05.016Z,20.34
2023-05-23T02:43:31.723Z,20.33
2023-05-23T02:45:58.368Z,20.38
2023-05-23T02:48:25.119Z,20.39
2023-05-23T02:50:51.973Z,20.41
2023-05-23T02:53:18.936Z,20.41
2023-05-23T02:55:47.105Z,20.45
2023-05-23T02:58:13.846Z,20.41
2023-05-23T03:00:40.460Z,20.51
2023-05-23T03:03:07.571Z,20.62
2023-05-23T03:05:34.379Z,20.64
2023-05-23T03:08:01.029Z,20.60
2023-05-23T03:10:27.735Z,20.59
2023-05-23T03:12:55.832Z,20.81
2023-05-23T03:15:22.454Z,20.89
2023-05-23T03:17:49.131Z,20.81
2023-05-23T03:20:16.141Z,20.82
2023-05-23T03:22:42.732Z,20.81
2023-05-23T03:25:09.809Z,20.70
2023-05-23T03:27:36.497Z,20.68
2023-05-23T03:30:05.426Z,20.32
2023-05-23T03:32:32.086Z,20.15
2023-05-23T03:34:58.900Z,20.15
2023-05-23T03:37:25.560Z,20.29
2023-05-23T03:39:52.184Z,20.10
2023-05-23T03:42:18.918Z,20.00
2023-05-23T03:44:45.922Z,20.03
2023-05-23T03:47:14.007Z,20.10
2023-05-23T03:49:40.627Z,20.28
2023-05-23T03:52:07.502Z,20.33
2023-05-23T03:54:34.159Z,20.48
2023-05-23T03:57:01.470Z,20.33
2023-05-23T03:59:28.152Z,20.08
2023-05-23T04:01:54.857Z,19.97
2023-05-23T04:04:22.934Z,19.97
2023-05-23T04:06:49.653Z,20.05
2023-05-23T04:09:16.411Z,20.00
2023-05-23T04:11:43.446Z,20.03
2023-05-23T04:14:10.128Z,20.00
2023-05-23T04:16:37.650Z,20.09
2023-05-23T04:19:05.918Z,20.20
2023-05-23T04:21:34.293Z,20.24
2023-05-23T04:24:01.261Z,20.08
2023-05-23T04:26:28.064Z,19.99
2023-05-23T04:28:54.665Z,20.04
2023-05-23T04:31:21.430Z,20.15
2023-05-23T04:33:48.414Z,20.15
2023-05-23T04:36:15.174Z,20.13
2023-05-23T04:38:43.385Z,20.05
2023-05-23T04:41:10.096Z,20.02
2023-05-23T04:43:36.867Z,19.97
2023-05-23T04:46:03.593Z,19.96
2023-05-23T04:48:30.271Z,19.92
2023-05-23T04:50:56.896Z,19.95
2023-05-23T04:53:23.653Z,20.09
2023-05-23T04:55:51.787Z,19.99
2023-05-23T04:58:18.667Z,20.13
2023-05-23T05:00:45.511Z,20.07
2023-05-23T05:03:14.404Z,19.98
2023-05-23T05:05:41.028Z,20.18
2023-05-23T05:08:07.718Z,20.04
2023-05-23T05:10:34.359Z,20.08
2023-05-23T05:13:02.407Z,20.03
2023-05-23T05:15:29.392Z,19.97
2023-05-23T05:17:56.039Z,20.11
2023-05-23T05:20:22.710Z,20.06
2023-05-23T05:22:55.697Z,20.12
2023-05-23T05:25:22.330Z,20.03
2023-05-23T05:27:48.999Z,20.00
2023-05-23T05:30:17.154Z,20.15
2023-05-23T05:32:43.840Z,20.28
2023-05-23T05:35:10.573Z,20.12
2023-05-23T05:37:37.252Z,20.14
2023-05-23T05:40:04.727Z,20.20
2023-05-23T05:42:31.466Z,20.06
2023-05-23T05:44:58.147Z,20.01
2023-05-23T05:47:26.347Z,19.79
2023-05-23T05:49:53.801Z,19.73
2023-05-23T05:52:20.463Z,19.95
2023-05-23T05:54:47.105Z,19.99
2023-05-23T05:57:13.850Z,19.87
2023-05-23T05:59:40.479Z,20.04
2023-05-23T06:02:07.164Z,20.29
2023-05-23T06:04:35.342Z,19.96
2023-05-23T06:07:02.041Z,19.93
2023-05-23T06:09:28.760Z,20.30
2023-05-23T06:11:55.504Z,20.45
2023-05-23T06:14:22.158Z,20.48
2023-05-23T06:16:49.478Z,20.48
2023-05-23T06:19:16.176Z,20.43
2023-05-23T06:21:44.224Z,20.62
2023-05-23T06:24:10.984Z,20.70
2023-05-23T06:26:37.578Z,20.73
2023-05-23T06:29:04.293Z,20.77
2023-05-23T06:31:31.237Z,20.83
2023-05-23T06:33:57.869Z,21.10
2023-05-23T06:36:24.539Z,21.23
2023-05-23T06:38:53.033Z,21.35
2023-05-23T06:41:19.749Z,21.22
2023-05-23T06:43:46.380Z,20.97
2023-05-23T06:46:13.035Z,21.03
2023-05-23T06:48:39.729Z,21.22
2023-05-23T06:51:06.556Z,21.11
2023-05-23T06:53:33.381Z,21.25
2023-05-23T06:56:01.480Z,21.48
2023-05-23T06:58:28.188Z,21.24
2023-05-23T07:00:55.060Z,21.09
2023-05-23T07:03:21.670Z,20.91
2023-05-23T07:05:48.333Z,21.06
2023-05-23T07:08:15.212Z,21.20
2023-05-23T07:10:42.298Z,21.34
2023-05-23T07:13:10.551Z,21.46
2023-05-23T07:15:37.417Z,21.47
2023-05-23T07:18:04.287Z,21.87
2023-05-23T07:20:32.997Z,21.98
2023-05-23T07:22:59.692Z,22.13
2023-05-23T07:25:26.324Z,22.27
2023-05-23T07:27:52.955Z,22.45
2023-05-23T07:30:21.386Z,22.57
2023-05-23T07:32:48.574Z,22.36
2023-05-23T07:35:15.722Z,22.20
2023-05-23T07:37:42.955Z,22.23
2023-05-23T07:40:10.313Z,22.07
2023-05-23T07:42:37.050Z,21.71
2023-05-23T07:45:04.516Z,21.67
2023-05-23T07:47:32.592Z,21.79
2023-05-23T07:49:59.404Z,21.85
2023-05-23T07:52:26.097Z,21.86
2023-05-23T07:54:52.955Z,21.84
2023-05-23T07:57:19.571Z,21.86
2023-05-23T07:59:46.446Z,21.81
2023-05-23T08:02:13.329Z,21.91
2023-05-23T08:04:41.685Z,21.60
2023-05-23T08:07:08.580Z,21.82
2023-05-23T08:09:35.613Z,21.79
2023-05-23T08:12:02.296Z,21.91
2023-05-23T08:14:38.753Z,22.02
2023-05-23T08:17:16.318Z,22.03
2023-05-23T08:19:44.675Z,21.92
2023-05-23T08:22:11.432Z,22.01
2023-05-23T08:24:38.069Z,22.31
2023-05-23T08:27:05.811Z,22.36
2023-05-23T08:29:32.449Z,22.40
2023-05-23T08:31:59.057Z,22.23
2023-05-23T08:34:25.778Z,22.26
2023-05-23T08:36:53.849Z,22.37
2023-05-23T08:39:20.498Z,22.84
2023-05-23T08:41:47.298Z,23.08
2023-05-23T08:44:14.290Z,22.96
2023-05-23T08:46:45.263Z,23.44
2023-05-23T08:49:13.488Z,23.64
2023-05-23T08:51:43.182Z,24.35
2023-05-23T08:54:11.400Z,24.52
2023-05-23T08:56:38.438Z,24.78
2023-05-23T08:59:05.658Z,24.57
2023-05-23T09:01:32.984Z,24.04
2023-05-23T09:03:59.899Z,23.86
2023-05-23T09:06:26.595Z,23.99
2023-05-23T09:08:53.318Z,24.04
2023-05-23T09:11:21.860Z,23.98
2023-05-23T09:13:48.643Z,23.96
2023-05-23T09:16:17.043Z,23.32
2023-05-23T09:18:45.064Z,23.43
2023-05-23T09:21:13.137Z,23.39
2023-05-23T09:23:41.740Z,23.08
2023-05-23T09:26:10.192Z,23.44
2023-05-23T09:28:40.322Z,23.61
2023-05-23T09:31:08.509Z,23.46
2023-05-23T09:33:40.745Z,23.48
2023-05-23T09:36:07.702Z,23.55
2023-05-23T09:38:38.604Z,23.56
2023-05-23T09:41:05.417Z,23.41
2023-05-23T09:43:32.204Z,23.33
2023-05-23T09:46:07.675Z,23.40
2023-05-23T09:48:34.311Z,23.46
2023-05-23T09:51:04.781Z,23.91
2023-05-23T09:53:31.814Z,24.10
2023-05-23T09:56:00.175Z,24.29
2023-05-23T09:58:28.184Z,24.20
2023-05-23T10:00:56.436Z,24.47
2023-05-23T10:03:30.806Z,24.55
2023-05-23T10:06:01.669Z,24.49
2023-05-23T10:08:34.170Z,24.55
2023-05-23T10:11:58.229Z,23.61
2023-05-23T10:14:29.334Z,23.44
2023-05-23T10:17:02.384Z,24.08
2023-05-23T10:19:36.465Z,24.83
2023-05-23T10:22:06.744Z,25.59
2023-05-23T10:24:34.436Z,25.82
2023-05-23T10:27:01.495Z,25.30
2023-05-23T10:29:29.824Z,25.00
2023-05-23T10:31:57.648Z,24.81
2023-05-23T10:34:34.910Z,24.30
2023-05-23T10:37:03.737Z,24.51
2023-05-23T10:39:46.812Z,24.63
2023-05-23T10:42:19.763Z,25.06
2023-05-23T10:44:46.409Z,24.92
2023-05-23T10:47:13.354Z,24.78
2023-05-23T10:49:43.244Z,23.93
2023-05-23T10:52:11.342Z,24.06
2023-05-23T10:54:43.096Z,23.84
2023-05-23T10:57:11.204Z,23.70
2023-05-23T10:59:39.068Z,23.29
2023-05-23T11:02:12.380Z,23.04
2023-05-23T11:04:39.299Z,23.24
2023-05-23T11:07:30.961Z,23.56
2023-05-23T11:10:04.720Z,23.88
2023-05-23T11:12:38.674Z,24.70
2023-05-23T11:15:19.614Z,24.63
2023-05-23T11:17:52.126Z,25.24
2023-05-23T11:20:19.561Z,25.41
2023-05-23T11:22:56.038Z,24.92
2023-05-23T11:25:40.282Z,24.42
2023-05-23T11:28:06.975Z,24.29
2023-05-23T11:30:35.272Z,24.04
2023-05-23T11:33:07.445Z,24.12
2023-05-23T11:35:34.216Z,24.11
2023-05-23T11:38:02.962Z,24.11
2023-05-23T11:40:31.409Z,24.35
2023-05-23T11:42:59.215Z,24.15
2023-05-23T11:45:27.232Z,24.49
2023-05-23T11:47:54.128Z,23.73
2023-05-23T11:50:20.918Z,23.95
2023-05-23T11:52:47.669Z,24.04
2023-05-23T11:55:15.789Z,24.20
2023-05-23T11:57:42.496Z,24.18
2023-05-23T12:00:10.671Z,24.74
2023-05-23T12:02:39.143Z,24.69
2023-05-23T12:05:10.107Z,24.81
2023-05-23T12:07:40.078Z,25.12
2023-05-23T12:10:07.981Z,24.66
2023-05-23T12:12:37.116Z,24.74
2023-05-23T12:15:05.634Z,25.08
2023-05-23T12:17:32.640Z,25.27
2023-05-23T12:19:59.901Z,24.83
2023-05-23T12:22:28.582Z,24.16
2023-05-23T12:24:55.745Z,24.49
2023-05-23T12:27:27.938Z,24.83
2023-05-23T12:30:05.057Z,25.13
2023-05-23T12:32:32.100Z,25.21
2023-05-23T12:34:59.224Z,24.68
2023-05-23T12:37:25.918Z,25.16
2023-05-23T12:39:52.680Z,25.18
2023-05-23T12:42:19.420Z,25.20
2023-05-23T12:44:46.169Z,25.17
2023-05-23T12:47:14.683Z,25.07
2023-05-23T12:49:41.352Z,25.27
2023-05-23T12:52:08.043Z,25.29
2023-05-23T12:54:34.709Z,25.06
2023-05-23T12:57:01.389Z,25.25
2023-05-23T12:59:28.064Z,25.09
2023-05-23T13:01:55.116Z,25.45
2023-05-23T13:04:23.258Z,25.54
2023-05-23T13:06:49.990Z,25.74
2023-05-23T13:09:16.698Z,25.92
2023-05-23T13:11:43.339Z,25.79
2023-05-23T13:14:09.969Z,25.72
2023-05-23T13:16:36.806Z,25.37
2023-05-23T13:19:03.627Z,25.19
2023-05-23T13:21:31.750Z,25.15
2023-05-23T13:23:58.409Z,25.29
2023-05-23T13:26:26.070Z,25.12
2023-05-23T13:28:52.896Z,24.71
2023-05-23T13:31:19.632Z,24.46
2023-05-23T13:33:46.281Z,24.65
2023-05-23T13:36:12.952Z,24.92
2023-05-23T13:38:41.088Z,25.28
2023-05-23T13:41:07.763Z,25.17
2023-05-23T13:43:34.560Z,24.96
2023-05-23T13:46:01.258Z,25.32
2023-05-23T13:48:28.125Z,24.70
2023-05-23T13:50:55.493Z,25.02
2023-05-23T13:53:22.118Z,25.21
2023-05-23T13:55:50.208Z,25.13
2023-05-23T13:58:17.027Z,25.62
2023-05-23T14:00:43.911Z,25.48
2023-05-23T14:03:11.494Z,25.67
2023-05-23T14:05:40.594Z,25.55
2023-05-23T14:08:07.287Z,25.48
2023-05-23T14:10:33.946Z,25.55
2023-05-23T14:13:01.994Z,25.45
2023-05-23T14:15:28.782Z,25.56
2023-05-23T14:17:55.736Z,25.29
2023-05-23T14:20:22.920Z,25.20
2023-05-23T14:22:49.568Z,25.14
2023-05-23T14:25:16.653Z,24.96
2023-05-23T14:27:43.775Z,25.07
2023-05-23T14:30:12.875Z,25.29
2023-05-23T14:32:39.717Z,25.18
2023-05-23T14:35:08.181Z,25.43
2023-05-23T14:37:35.127Z,25.47
2023-05-23T14:40:01.831Z,25.59
2023-05-23T14:42:28.608Z,25.56
2023-05-23T14:44:55.272Z,25.03
2023-05-23T14:47:23.450Z,25.25
2023-05-23T14:49:50.177Z,25.57
2023-05-23T14:52:17.123Z,25.38
2023-05-23T14:54:43.999Z,24.96
2023-05-23T14:57:12.927Z,24.95
2023-05-23T14:59:39.628Z,25.16
2023-05-23T15:02:06.551Z,24.80
2023-05-23T15:04:35.602Z,25.04
2023-05-23T15:07:02.506Z,24.94
2023-05-23T15:09:29.165Z,25.09
2023-05-23T15:11:55.949Z,25.28
2023-05-23T15:14:22.625Z,25.01
2023-05-23T15:16:49.295Z,24.85
2023-05-23T15:19:16.339Z,25.07
2023-05-23T15:21:50.387Z,25.46
2023-05-23T15:24:17.998Z,25.05
2023-05-23T15:26:44.646Z,25.20
2023-05-23T15:29:11.302Z,24.61
2023-05-23T15:31:38.009Z,25.07
2023-05-23T15:34:05.031Z,25.04
2023-05-23T15:36:31.670Z,25.27
2023-05-23T15:39:00.190Z,25.33
2023-05-23T15:41:26.990Z,25.43
2023-05-23T15:43:53.936Z,25.36
2023-05-23T15:46:20.696Z,25.64
2023-05-23T15:48:47.406Z,25.34
2023-05-23T15:51:14.038Z,24.63
2023-05-23T15:53:58.803Z,24.62
2023-05-23T15:56:28.892Z,24.57
2023-05-23T15:58:55.593Z,24.78
2023-05-23T16:01:22.454Z,25.07
2023-05-23T16:03:50.123Z,25.10
2023-05-23T16:06:18.253Z,24.94
2023-05-23T16:08:44.928Z,24.87
2023-05-23T16:11:11.690Z,24.80
2023-05-23T16:13:39.804Z,24.66
2023-05-23T16:16:06.486Z,24.32
2023-05-23T16:18:33.795Z,24.36
2023-05-23T16:21:00.484Z,24.35
2023-05-23T16:23:27.127Z,24.64
2023-05-23T16:25:54.025Z,24.72
2023-05-23T16:28:20.954Z,24.72
2023-05-23T16:30:50.672Z,24.73
2023-05-23T16:33:17.504Z,24.62
2023-05-23T16:35:44.251Z,24.66
2023-05-23T16:38:10.910Z,24.15
2023-05-23T16:40:37.588Z,24.55
2023-05-23T16:43:04.278Z,25.00
2023-05-23T16:45:31.047Z,25.11
2023-05-23T16:47:59.584Z,24.82
2023-05-23T16:50:26.231Z,24.76
2023-05-23T16:52:53.037Z,24.39
2023-05-23T16:55:19.796Z,24.22
2023-05-23T16:57:46.659Z,24.32
2023-05-23T17:00:14.359Z,23.97
2023-05-23T17:02:41.418Z,24.48
2023-05-23T17:05:09.724Z,24.38
2023-05-23T17:07:36.332Z,24.27
2023-05-23T17:10:03.162Z,24.39
2023-05-23T17:12:29.823Z,24.43
2023-05-23T17:14:56.453Z,24.06
2023-05-23T17:17:23.280Z,23.72
2023-05-23T17:19:49.971Z,23.68
2023-05-23T17:22:18.044Z,23.89
2023-05-23T17:24:44.994Z,24.10
2023-05-23T17:27:11.650Z,24.02
2023-05-23T17:29:38.265Z,23.93
2023-05-23T17:32:05.675Z,23.77
2023-05-23T17:34:32.316Z,23.92
2023-05-23T17:36:58.933Z,23.49
2023-05-23T17:39:27.383Z,23.00
2023-05-23T17:41:54.029Z,23.58
2023-05-23T17:44:20.867Z,23.38
2023-05-23T17:46:47.625Z,23.40
2023-05-23T17:49:14.358Z,23.52
2023-05-23T17:51:41.005Z,23.02
2023-05-23T17:54:07.787Z,22.66
2023-05-23T17:56:35.813Z,23.19
2023-05-23T17:59:03.789Z,23.40
2023-05-23T18:01:30.624Z,23.07
2023-05-23T18:03:57.330Z,22.54
2023-05-23T18:06:23.968Z,22.96
2023-05-23T18:08:50.734Z,22.70
2023-05-23T18:11:17.424Z,22.57
2023-05-23T18:13:45.453Z,22.42
2023-05-23T18:16:13.655Z,22.68
2023-05-23T18:18:40.356Z,22.50
2023-05-23T18:21:08.237Z,22.73
2023-05-23T18:23:35.086Z,22.61
2023-05-23T18:26:02.001Z,22.74
2023-05-23T18:28:28.728Z,23.02
2023-05-23T18:30:56.959Z,22.98
2023-05-23T18:33:23.650Z,23.07
2023-05-23T18:35:50.927Z,22.94
2023-05-23T18:38:17.685Z,22.84
2023-05-23T18:40:44.853Z,22.94
2023-05-23T18:43:12.200Z,22.53
2023-05-23T18:45:38.968Z,22.50
2023-05-23T18:48:07.064Z,22.49
2023-05-23T18:50:33.744Z,22.61
2023-05-23T18:53:00.578Z,22.39
2023-05-23T18:55:27.199Z,22.23
2023-05-23T18:57:54.449Z,22.08
2023-05-23T19:00:21.468Z,22.17
2023-05-23T19:02:48.216Z,22.35
2023-05-23T19:05:16.453Z,22.22
2023-05-23T19:07:43.060Z,22.04
2023-05-23T19:10:11.182Z,22.01
2023-05-23T19:12:38.007Z,21.96
2023-05-23T19:15:06.009Z,22.20
2023-05-23T19:17:32.732Z,22.20
2023-05-23T19:19:59.758Z,22.20
2023-05-23T19:22:31.456Z,22.23
2023-05-23T19:25:03.034Z,21.81
2023-05-23T19:27:29.650Z,21.68
2023-05-23T19:29:56.364Z,21.85
2023-05-23T19:32:23.035Z,21.84
2023-05-23T19:34:49.726Z,21.82
2023-05-23T19:37:16.402Z,21.83
2023-05-23T19:39:44.502Z,21.79
2023-05-23T19:42:11.405Z,21.71
2023-05-23T19:44:38.012Z,21.64
2023-05-23T19:47:05.147Z,21.59
2023-05-23T19:49:31.834Z,21.63
2023-05-23T19:51:58.477Z,21.53
2023-05-23T19:54:25.167Z,21.49
2023-05-23T19:56:53.363Z,21.52
2023-05-23T19:59:20.199Z,21.57
2023-05-23T20:01:46.950Z,21.52
2023-05-23T20:04:14.058Z,21.59
2023-05-23T20:06:40.721Z,21.47
2023-05-23T20:09:07.351Z,21.54
2023-05-23T20:11:34.909Z,21.46
2023-05-23T20:14:02.958Z,21.47
2023-05-23T20:16:29.832Z,21.37
2023-05-23T20:18:56.722Z,21.33
2023-05-23T20:21:23.336Z,21.29
2023-05-23T20:23:49.974Z,21.18
2023-05-23T20:26:16.693Z,21.10
2023-05-23T20:28:43.318Z,21.08
2023-05-23T20:31:11.683Z,20.99
2023-05-23T20:33:38.596Z,20.98
2023-05-23T20:36:05.968Z,20.89
2023-05-23T20:38:32.613Z,20.98
2023-05-23T20:40:59.476Z,20.82
2023-05-23T20:43:26.132Z,20.61
2023-05-23T20:45:52.810Z,20.60
2023-05-23T20:48:20.897Z,20.31
2023-05-23T20:50:47.501Z,20.25
2023-05-23T20:53:14.172Z,20.29
2023-05-23T20:55:41.327Z,20.33
2023-05-23T20:58:08.106Z,20.08
2023-05-23T21:00:34.725Z,20.24
2023-05-23T21:03:01.686Z,20.20
2023-05-23T21:05:29.898Z,20.34
2023-05-23T21:07:56.551Z,20.36
2023-05-23T21:10:23.297Z,20.32
2023-05-23T21:12:50.018Z,20.40
2023-05-23T21:15:17.394Z,20.36
2023-05-23T21:17:44.373Z,20.42
2023-05-23T21:20:11.807Z,20.54
2023-05-23T21:22:40.396Z,20.35
2023-05-23T21:25:07.605Z,20.57
2023-05-23T21:27:34.322Z,20.54
2023-05-23T21:30:00.957Z,20.42
2023-05-23T21:32:27.691Z,20.52
2023-05-23T21:34:54.469Z,20.64
2023-05-23T21:37:21.123Z,20.69
2023-05-23T21:39:52.279Z,20.63
2023-05-23T21:42:19.446Z,20.68
2023-05-23T21:44:46.053Z,20.51
2023-05-23T21:47:12.716Z,20.60
2023-05-23T21:49:39.451Z,20.44
2023-05-23T21:52:06.095Z,20.53
2023-05-23T21:54:32.758Z,20.43
2023-05-23T21:57:01.091Z,20.56
2023-05-23T21:59:27.744Z,20.62
2023-05-23T22:01:54.493Z,20.79
2023-05-23T22:04:21.380Z,20.76
2023-05-23T22:06:48.062Z,20.76
2023-05-23T22:09:14.807Z,20.72
2023-05-23T22:11:41.840Z,20.67
2023-05-23T22:14:10.183Z,20.59
2023-05-23T22:16:38.240Z,20.53
2023-05-23T22:19:05.240Z,20.46
2023-05-23T22:21:32.434Z,20.41
2023-05-23T22:23:59.163Z,20.40
2023-05-23T22:26:25.907Z,20.24
2023-05-23T22:28:52.517Z,20.21
2023-05-23T22:31:22.240Z,20.07
2023-05-23T22:33:49.386Z,19.96
2023-05-23T22:36:16.061Z,19.99
2023-05-23T22:38:42.762Z,20.03
2023-05-23T22:41:09.647Z,19.90
2023-05-23T22:43:36.557Z,19.79
2023-05-23T22:46:03.244Z,19.70
2023-05-23T22:48:31.400Z,19.93
2023-05-23T22:50:57.992Z,19.99
2023-05-23T22:53:24.605Z,20.06
2023-05-23T22:55:53.155Z,20.26
2023-05-23T22:58:19.835Z,20.20
2023-05-23T23:00:46.502Z,20.14
2023-05-23T23:03:13.462Z,20.06
2023-05-23T23:05:41.659Z,20.08
2023-05-23T23:08:08.253Z,19.93
2023-05-23T23:10:34.984Z,19.89
2023-05-23T23:13:01.639Z,19.76
2023-05-23T23:15:28.267Z,19.66
2023-05-23T23:17:55.287Z,19.72
2023-05-23T23:20:21.993Z,19.64
2023-05-23T23:22:50.136Z,19.61
2023-05-23T23:25:17.052Z,19.63
2023-05-23T23:27:43.639Z,19.67
2023-05-23T23:30:10.712Z,19.53
2023-05-23T23:32:37.443Z,19.60
2023-05-23T23:35:04.980Z,19.40
2023-05-23T23:37:31.579Z,19.45
2023-05-23T23:39:59.830Z,19.60
2023-05-23T23:42:26.451Z,19.81
2023-05-23T23:44:53.090Z,19.68
2023-05-23T23:47:19.807Z,19.73
2023-05-23T23:49:46.667Z,19.73
2023-05-23T23:52:13.400Z,19.69
2023-05-23T23:54:40.094Z,19.72
2023-05-23T23:57:08.161Z,19.80
2023-05-23T23:59:34.781Z,19.79
